createdAt,value
2018-02-02T00:00:02.324Z,1
2018-02-02T00:15:02.536Z,1.1
2018-02-02T00:30:03.022Z,1.1
2018-02-02T00:45:02.391Z,1
2018-02-02T01:00:02.877Z,1
2018-02-02T01:15:02.547Z,0.8
2018-02-02T01:30:05.017Z,0.8
2018-02-02T01:45:02.269Z,0.8
2018-02-02T02:00:04.008Z,0.8
2018-02-02T02:15:02.514Z,0.9
2018-02-02T02:30:03.296Z,0.9
2018-02-02T02:45:03.528Z,0.8
2018-02-02T03:00:14.051Z,0.8
2018-02-02T03:15:04.169Z,0.8
2018-02-02T03:30:05.419Z,0.8
2018-02-02T03:45:03.328Z,0.7
2018-02-02T04:00:05.411Z,0.4
2018-02-02T04:15:04.123Z,0.6
2018-02-02T04:30:02.889Z,0.4
2018-02-02T04:45:02.766Z,0.6
2018-02-02T05:00:06.652Z,0.6
2018-02-02T05:15:02.581Z,0.6
2018-02-02T05:30:08.016Z,0.6
2018-02-02T05:45:04.714Z,0.6
2018-02-02T06:00:06.444Z,0.5
2018-02-02T06:15:05.253Z,0.5
2018-02-02T06:30:03.614Z,0.3
2018-02-02T06:45:02.757Z,0.6
2018-02-02T07:00:20.741Z,0.6
2018-02-02T07:15:04.675Z,0.8
2018-02-02T07:30:04.680Z,0.8
2018-02-02T07:45:02.390Z,0.8
2018-02-02T08:00:03.125Z,0.9
2018-02-02T08:15:02.749Z,1.1
2018-02-02T08:30:03.757Z,1.2
2018-02-02T08:45:02.976Z,1.4
2018-02-02T09:00:02.492Z,1.4
2018-02-02T09:15:02.803Z,1.6
2018-02-02T09:30:03.114Z,1.8
2018-02-02T09:45:02.435Z,1.9
2018-02-02T10:00:02.743Z,2.1
2018-02-02T10:15:03.000Z,2.4
2018-02-02T10:30:02.322Z,2.5
2018-02-02T10:45:02.612Z,2.6
2018-02-02T11:00:02.843Z,2.9
2018-02-02T11:15:03.176Z,3
2018-02-02T11:30:02.511Z,3.2
2018-02-02T11:45:02.822Z,3.4
2018-02-02T12:00:03.079Z,3.6
2018-02-02T12:15:02.336Z,3.6
2018-02-02T12:30:02.664Z,3.7
2018-02-02T12:45:02.933Z,4.1
2018-02-02T13:00:03.205Z,4
2018-02-02T13:15:02.522Z,4
2018-02-02T13:30:02.896Z,4.1
2018-02-02T13:45:03.150Z,4.2
2018-02-02T14:00:02.415Z,4.1
2018-02-02T14:15:02.701Z,4.1
2018-02-02T14:30:03.034Z,3.9
2018-02-02T14:45:02.295Z,3.8
2018-02-02T15:00:02.591Z,3.9
2018-02-02T15:15:02.809Z,3.9
2018-02-02T15:30:03.133Z,3.6
2018-02-02T15:45:02.423Z,3.2
2018-02-02T16:00:02.705Z,2.9
2018-02-02T16:15:03.146Z,2.2
2018-02-02T16:30:02.765Z,2.1
2018-02-02T16:45:03.016Z,1.6
2018-02-02T17:00:08.657Z,1.2
2018-02-02T17:15:04.613Z,1.1
2018-02-02T17:30:08.008Z,0.4
2018-02-02T17:45:05.011Z,0.6
2018-02-02T18:00:11.203Z,0.1
2018-02-02T18:15:09.272Z,0.2
2018-02-02T18:30:06.085Z,0.2
2018-02-02T18:45:04.110Z,0.1
2018-02-02T19:00:09.509Z,-0.1
2018-02-02T19:15:10.609Z,0.2
2018-02-02T19:30:09.640Z,0
2018-02-02T19:45:02.993Z,0.2
2018-02-02T20:00:02.285Z,0.4
2018-02-02T20:15:02.562Z,0.4
2018-02-02T20:30:05.953Z,0.4
2018-02-02T20:45:02.205Z,0.4
2018-02-02T21:00:02.475Z,0.5
2018-02-02T21:15:02.711Z,0.4
2018-02-02T21:30:11.862Z,0.6
2018-02-02T21:45:02.398Z,0.6
2018-02-02T22:00:02.668Z,0.7
2018-02-02T22:15:04.638Z,0.7
2018-02-02T22:30:03.122Z,0.6
2018-02-02T22:45:02.406Z,0.7
2018-02-02T23:00:02.700Z,0.7
2018-02-02T23:15:02.921Z,0.8
2018-02-02T23:30:02.273Z,0.8
2018-02-02T23:45:02.514Z,0.8
